Country Club Hills, Illinois
Current Conditions -  °F | °C
As of 9:55 AM on Saturday 25 Oct 2014 (Local Time) from KIGQ Reporting Station
Haze Haze  
Wind Chill: 61°   Ceiling: 1300
Heat Index: 61°   Visibility: 5mi
Dew Point: 56°   Wind: 13mph
Humidity: 84%   Direction: 280°W
Pressure: 29.94"   Gusts: 16mph
Location:  41.56°N, 87.72°W
Report Text: KIGQ 251455Z AUTO 28011G14KT 5SM HZ BKN013 16/14 A2994 RMK AO2 T01620135
Loading
Personal Weather Stations






























Interactive Weather Map
Tropical Storm Tracking
New forecast layout! Learn more

10-Day Weather Forecast

Advertisements
Track Severe Weather on mobile